createdAt,value
2019-01-21T00:02:20.709Z,38.38
2019-01-21T00:04:47.718Z,36.23
2019-01-21T00:07:14.713Z,37.48
2019-01-21T00:09:41.759Z,34.65
2019-01-21T00:12:08.727Z,32.95
2019-01-21T00:14:35.761Z,32.00
2019-01-21T00:17:02.880Z,37.42
2019-01-21T00:19:29.913Z,36.15
2019-01-21T00:21:56.869Z,34.70
2019-01-21T00:24:23.891Z,35.13
2019-01-21T00:26:51.160Z,32.58
2019-01-21T00:29:18.876Z,34.33
2019-01-21T00:31:45.946Z,34.45
2019-01-21T00:34:12.898Z,36.08
2019-01-21T00:36:39.904Z,36.38
2019-01-21T00:39:06.908Z,36.08
2019-01-21T00:41:33.882Z,37.60
2019-01-21T00:44:00.897Z,38.02
2019-01-21T00:46:27.855Z,30.70
2019-01-21T00:48:54.887Z,34.58
2019-01-21T00:51:22.068Z,28.98
2019-01-21T00:53:49.100Z,37.93
2019-01-21T00:56:16.078Z,37.75
2019-01-21T00:58:43.107Z,36.10
2019-01-21T01:01:10.172Z,33.55
2019-01-21T01:03:37.171Z,35.28
2019-01-21T01:06:04.161Z,37.40
2019-01-21T01:08:31.974Z,36.13
2019-01-21T01:10:59.000Z,39.67
2019-01-21T01:13:25.968Z,35.25
2019-01-21T01:15:52.985Z,33.70
2019-01-21T01:18:19.973Z,38.75
2019-01-21T01:20:46.979Z,36.60
2019-01-21T01:23:13.947Z,37.25
2019-01-21T01:25:40.957Z,35.13
2019-01-21T01:28:07.950Z,37.23
2019-01-21T01:30:34.959Z,35.50
2019-01-21T01:33:01.978Z,37.03
2019-01-21T01:35:28.995Z,33.60
2019-01-21T01:37:55.968Z,35.08
2019-01-21T01:40:22.988Z,37.45
2019-01-21T01:42:49.941Z,36.65
2019-01-21T01:45:20.248Z,39.27
2019-01-21T01:47:49.003Z,33.78
2019-01-21T01:50:16.019Z,37.75
2019-01-21T01:52:43.010Z,36.65
2019-01-21T01:55:10.212Z,34.75
2019-01-21T01:57:37.293Z,37.58
2019-01-21T02:00:12.935Z,33.65
2019-01-21T02:02:40.005Z,34.90
2019-01-21T02:05:07.323Z,30.43
2019-01-21T02:07:34.306Z,33.42
2019-01-21T02:10:01.335Z,34.15
2019-01-21T02:12:28.323Z,29.98
2019-01-21T02:14:55.365Z,37.88
2019-01-21T02:17:22.430Z,32.10
2019-01-21T02:19:52.974Z,37.83
2019-01-21T02:22:22.076Z,34.45
2019-01-21T02:24:50.843Z,38.88
2019-01-21T02:27:18.849Z,31.20
2019-01-21T02:29:58.418Z,30.97
2019-01-21T02:32:37.968Z,37.48
2019-01-21T02:35:11.363Z,35.73
2019-01-21T02:38:09.659Z,30.95
2019-01-21T02:40:40.257Z,37.33
2019-01-21T02:43:33.200Z,31.60
2019-01-21T02:46:09.483Z,32.50
2019-01-21T02:49:01.190Z,36.08
2019-01-21T02:51:49.938Z,31.62
2019-01-21T02:54:37.052Z,33.55
2019-01-21T02:57:19.432Z,34.03
2019-01-21T02:59:55.998Z,29.60
2019-01-21T03:02:32.507Z,32.67
2019-01-21T03:05:28.047Z,38.08
2019-01-21T03:08:13.729Z,33.02
2019-01-21T03:10:53.138Z,32.20
2019-01-21T03:13:26.680Z,36.38
2019-01-21T03:15:57.300Z,32.95
2019-01-21T03:18:34.246Z,36.30
2019-01-21T03:21:10.595Z,31.85
2019-01-21T03:23:50.040Z,31.77
2019-01-21T03:26:32.701Z,38.48
2019-01-21T03:29:09.103Z,27.58
2019-01-21T03:31:54.828Z,33.80
2019-01-21T03:34:37.256Z,34.73
2019-01-21T03:37:24.187Z,31.95
2019-01-21T03:39:57.792Z,34.75
2019-01-21T03:42:40.357Z,31.20
2019-01-21T03:45:22.720Z,37.33
2019-01-21T03:47:52.209Z,33.67
2019-01-21T03:50:28.736Z,29.30
2019-01-21T03:53:17.404Z,33.70
2019-01-21T03:55:46.308Z,30.17
2019-01-21T03:58:31.727Z,31.45
2019-01-21T04:01:05.059Z,30.92
2019-01-21T04:03:44.437Z,33.42
2019-01-21T04:06:15.063Z,31.93
2019-01-21T04:09:14.361Z,36.38
2019-01-21T04:11:51.668Z,32.85
2019-01-21T04:14:44.715Z,30.35
2019-01-21T04:17:30.363Z,32.55
2019-01-21T04:20:24.871Z,34.40
2019-01-21T04:23:04.247Z,31.55
2019-01-21T04:25:54.564Z,30.70
2019-01-21T04:28:28.327Z,37.28
2019-01-21T04:31:01.622Z,31.40
2019-01-21T04:33:40.975Z,36.30
2019-01-21T04:36:46.077Z,35.17
2019-01-21T04:39:22.357Z,28.75
2019-01-21T04:41:52.977Z,30.15
2019-01-21T04:44:41.753Z,34.08
2019-01-21T04:47:18.117Z,35.45
2019-01-21T04:49:51.683Z,32.38
2019-01-21T04:52:22.301Z,32.75
2019-01-21T04:55:09.602Z,34.08
2019-01-21T04:57:43.033Z,35.50
2019-01-21T05:00:28.445Z,32.95
2019-01-21T05:02:59.057Z,33.95
2019-01-21T05:05:50.578Z,32.55
2019-01-21T05:08:29.853Z,32.90
2019-01-21T05:11:11.905Z,40.40
2019-01-21T05:13:51.373Z,33.10
2019-01-21T05:16:22.047Z,34.33
2019-01-21T05:18:58.081Z,33.98
2019-01-21T05:21:37.493Z,34.25
2019-01-21T05:24:13.708Z,34.33
2019-01-21T05:26:59.415Z,34.38
2019-01-21T05:29:47.754Z,34.33
2019-01-21T05:32:30.677Z,35.40
2019-01-21T05:35:01.339Z,38.35
2019-01-21T05:37:50.170Z,32.05
2019-01-21T05:40:35.687Z,35.88
2019-01-21T05:43:22.627Z,31.30
2019-01-21T05:45:56.087Z,29.65
2019-01-21T05:48:48.866Z,37.98
2019-01-21T05:51:33.695Z,39.03
2019-01-21T05:54:07.146Z,33.28
2019-01-21T05:57:01.666Z,35.17
2019-01-21T05:59:46.604Z,38.08
2019-01-21T06:02:38.045Z,36.73
2019-01-21T06:05:28.085Z,28.40
2019-01-21T06:08:24.426Z,28.52
2019-01-21T06:11:03.805Z,34.67
2019-01-21T06:13:55.354Z,34.10
2019-01-21T06:16:52.870Z,36.30
2019-01-21T06:19:39.813Z,35.60
2019-01-21T06:22:19.421Z,32.20
2019-01-21T06:24:52.550Z,34.70
2019-01-21T06:27:23.171Z,31.55
2019-01-21T06:30:02.532Z,34.40
2019-01-21T06:32:33.163Z,32.05
2019-01-21T06:35:03.850Z,28.75
2019-01-21T06:37:52.396Z,34.95
2019-01-21T06:40:40.636Z,32.75
2019-01-21T06:43:19.973Z,31.50
2019-01-21T06:45:56.438Z,31.68
2019-01-21T06:48:38.723Z,34.33
2019-01-21T06:51:28.965Z,29.00
2019-01-21T06:54:14.616Z,34.33
2019-01-21T06:57:04.605Z,34.70
2019-01-21T06:59:59.313Z,31.10
2019-01-21T07:02:35.652Z,29.05
2019-01-21T07:05:09.061Z,33.05
2019-01-21T07:07:54.813Z,32.15
2019-01-21T07:10:31.390Z,29.65
2019-01-21T07:13:02.046Z,35.00
2019-01-21T07:15:49.284Z,32.80
2019-01-21T07:18:31.786Z,35.75
2019-01-21T07:21:11.425Z,37.88
2019-01-21T07:24:02.921Z,31.57
2019-01-21T07:26:57.500Z,28.67
2019-01-21T07:29:37.011Z,30.80
2019-01-21T07:32:07.682Z,24.72
2019-01-21T07:34:57.874Z,36.03
2019-01-21T07:37:34.535Z,38.02
2019-01-21T07:40:29.370Z,30.40
2019-01-21T07:43:00.363Z,27.82
2019-01-21T07:45:34.037Z,31.75
2019-01-21T07:48:31.789Z,30.25
2019-01-21T07:51:10.687Z,32.15
2019-01-21T07:53:49.848Z,30.65
2019-01-21T07:56:29.298Z,32.15
2019-01-21T07:59:22.295Z,30.35
2019-01-21T08:01:52.937Z,34.10
2019-01-21T08:04:38.404Z,27.58
2019-01-21T08:07:27.045Z,33.25
2019-01-21T08:10:15.521Z,27.00
2019-01-21T08:13:05.563Z,28.70
2019-01-21T08:15:45.233Z,30.70
2019-01-21T08:18:18.527Z,37.03
2019-01-21T08:20:55.269Z,36.20
2019-01-21T08:23:42.273Z,38.02
2019-01-21T08:26:25.065Z,29.20
2019-01-21T08:29:10.458Z,27.93
2019-01-21T08:31:46.857Z,28.23
2019-01-21T08:34:20.220Z,27.52
2019-01-21T08:36:56.694Z,29.95
2019-01-21T08:39:45.412Z,30.75
2019-01-21T08:42:27.875Z,31.50
2019-01-21T08:45:22.488Z,31.57
2019-01-21T08:48:01.889Z,29.52
2019-01-21T08:50:54.938Z,29.63
2019-01-21T08:53:28.476Z,27.27
2019-01-21T08:56:02.151Z,28.73
2019-01-21T08:58:51.042Z,27.27
2019-01-21T09:01:24.641Z,27.75
2019-01-21T09:04:23.747Z,29.30
2019-01-21T09:07:00.657Z,31.35
2019-01-21T09:09:32.448Z,29.23
2019-01-21T09:12:25.573Z,26.17
2019-01-21T09:15:08.245Z,29.57
2019-01-21T09:17:53.663Z,29.23
2019-01-21T09:20:49.725Z,28.38
2019-01-21T09:23:23.266Z,29.32
2019-01-21T09:25:56.815Z,29.10
2019-01-21T09:28:30.500Z,34.20
2019-01-21T09:31:07.113Z,29.42
2019-01-21T09:33:40.491Z,31.55
2019-01-21T09:36:27.622Z,27.22
2019-01-21T09:39:10.009Z,29.40
2019-01-21T09:41:52.686Z,27.20
2019-01-21T09:44:29.243Z,26.85
2019-01-21T09:46:55.843Z,29.48
2019-01-21T09:49:22.412Z,27.82
2019-01-21T09:51:52.339Z,27.95
2019-01-21T09:54:19.665Z,31.23
2019-01-21T09:56:47.927Z,27.98
2019-01-21T09:59:14.963Z,28.23
2019-01-21T10:01:42.152Z,30.62
2019-01-21T10:04:12.763Z,30.90
2019-01-21T10:06:49.368Z,24.85
2019-01-21T10:09:25.825Z,27.80
2019-01-21T10:12:16.103Z,29.40
2019-01-21T10:14:58.569Z,29.92
2019-01-21T10:17:29.147Z,25.57
2019-01-21T10:20:16.062Z,27.45
2019-01-21T10:23:04.556Z,32.58
2019-01-21T10:25:51.803Z,29.57
2019-01-21T10:28:41.607Z,26.12
2019-01-21T10:31:36.244Z,29.80
2019-01-21T10:34:35.236Z,31.80
2019-01-21T10:37:21.632Z,26.62
2019-01-21T10:40:17.968Z,28.40
2019-01-21T10:42:54.245Z,29.12
2019-01-21T10:45:42.910Z,30.32
2019-01-21T10:48:32.795Z,32.05
2019-01-21T10:51:15.146Z,32.63
2019-01-21T10:53:57.601Z,29.45
2019-01-21T10:56:31.783Z,27.15
2019-01-21T10:59:11.046Z,25.15
2019-01-21T11:02:02.389Z,25.85
2019-01-21T11:04:33.033Z,28.95
2019-01-21T11:07:09.666Z,26.33
2019-01-21T11:09:47.600Z,30.72
2019-01-21T11:12:30.154Z,29.40
2019-01-21T11:15:09.541Z,28.55
2019-01-21T11:17:55.071Z,33.30
2019-01-21T11:20:28.493Z,26.45
2019-01-21T11:23:18.455Z,34.00
2019-01-21T11:26:08.371Z,25.95
2019-01-21T11:28:42.518Z,30.57
2019-01-21T11:31:19.131Z,29.32
2019-01-21T11:34:04.757Z,29.90
2019-01-21T11:36:35.437Z,30.08
2019-01-21T11:39:11.770Z,29.85
2019-01-21T11:41:51.147Z,26.10
2019-01-21T11:44:48.991Z,31.42
2019-01-21T11:47:22.329Z,30.45
2019-01-21T11:50:11.201Z,27.55
2019-01-21T11:52:44.748Z,30.97
2019-01-21T11:55:18.164Z,34.78
2019-01-21T11:57:48.777Z,28.50
2019-01-21T12:00:40.408Z,27.73
2019-01-21T12:03:11.030Z,31.70
2019-01-21T12:05:41.661Z,29.57
2019-01-21T12:08:12.304Z,27.58
2019-01-21T12:11:02.005Z,29.67
2019-01-21T12:13:44.712Z,28.10
2019-01-21T12:16:24.044Z,28.73
2019-01-21T12:18:57.364Z,28.52
2019-01-21T12:21:36.691Z,34.13
2019-01-21T12:24:07.338Z,28.05
2019-01-21T12:26:49.841Z,25.12
2019-01-21T12:29:26.367Z,30.50
2019-01-21T12:32:20.794Z,31.70
2019-01-21T12:35:13.864Z,26.27
2019-01-21T12:37:44.514Z,30.90
2019-01-21T12:40:31.499Z,31.90
2019-01-21T12:43:07.804Z,29.63
2019-01-21T12:45:40.985Z,32.90
2019-01-21T12:48:17.394Z,31.40
2019-01-21T12:50:50.709Z,32.15
2019-01-21T12:53:21.357Z,27.80
2019-01-21T12:56:26.277Z,33.67
2019-01-21T12:58:59.756Z,28.15
2019-01-21T13:01:36.489Z,31.33
2019-01-21T13:04:21.874Z,32.85
2019-01-21T13:07:01.320Z,27.30
2019-01-21T13:10:00.657Z,27.65
2019-01-21T13:12:46.075Z,27.80
2019-01-21T13:15:22.283Z,27.22
2019-01-21T13:17:55.377Z,23.73
2019-01-21T13:20:30.663Z,27.65
2019-01-21T13:23:03.276Z,27.77
2019-01-21T13:25:51.600Z,28.38
2019-01-21T13:28:43.201Z,26.05
2019-01-21T13:31:22.425Z,25.25
2019-01-21T13:34:15.508Z,22.22
2019-01-21T13:37:16.028Z,27.50
2019-01-21T13:39:55.472Z,34.08
2019-01-21T13:42:25.967Z,25.12
2019-01-21T13:45:02.034Z,27.42
2019-01-21T13:47:47.320Z,27.98
2019-01-21T13:50:26.739Z,26.65
2019-01-21T13:53:02.874Z,25.77
2019-01-21T13:55:39.380Z,27.93
2019-01-21T13:58:24.992Z,28.65
2019-01-21T14:01:07.410Z,27.27
2019-01-21T14:03:37.846Z,27.48
2019-01-21T14:06:26.165Z,25.50
2019-01-21T14:09:14.488Z,27.30
2019-01-21T14:12:01.540Z,26.90
2019-01-21T14:14:52.368Z,30.15
2019-01-21T14:17:25.734Z,23.62
2019-01-21T14:20:05.209Z,26.93
2019-01-21T14:22:38.560Z,25.35
2019-01-21T14:25:24.128Z,35.90
2019-01-21T14:27:57.577Z,25.55
2019-01-21T14:30:36.585Z,27.45
2019-01-21T14:33:34.010Z,27.35
2019-01-21T14:36:20.902Z,29.87
2019-01-21T14:39:09.260Z,28.60
2019-01-21T14:41:54.562Z,30.57
2019-01-21T14:44:41.516Z,27.73
2019-01-21T14:47:29.413Z,27.52
2019-01-21T14:50:02.650Z,30.10
2019-01-21T14:52:54.207Z,28.52
2019-01-21T14:55:39.454Z,26.87
2019-01-21T14:58:15.860Z,28.55
2019-01-21T15:01:05.816Z,25.23
2019-01-21T15:03:39.225Z,28.17
2019-01-21T15:06:24.278Z,25.65
2019-01-21T15:08:57.648Z,26.90
2019-01-21T15:11:40.191Z,28.62
2019-01-21T15:14:22.780Z,29.15
2019-01-21T15:17:04.580Z,29.40
2019-01-21T15:19:34.043Z,27.75
2019-01-21T15:22:07.188Z,33.40
2019-01-21T15:24:49.816Z,29.82
2019-01-21T15:27:34.952Z,26.55
2019-01-21T15:30:20.306Z,32.50
2019-01-21T15:33:07.048Z,26.10
2019-01-21T15:35:43.530Z,29.10
2019-01-21T15:38:20.168Z,24.55
2019-01-21T15:41:07.058Z,28.35
2019-01-21T15:43:40.223Z,26.42
2019-01-21T15:46:33.115Z,31.62
2019-01-21T15:49:03.547Z,30.65
2019-01-21T15:51:39.856Z,35.65
2019-01-21T15:54:35.681Z,30.72
2019-01-21T15:57:18.199Z,28.55
2019-01-21T16:00:15.787Z,29.90
2019-01-21T16:02:46.200Z,31.60
2019-01-21T16:05:28.502Z,28.57
2019-01-21T16:07:58.925Z,28.75
2019-01-21T16:10:34.973Z,29.92
2019-01-21T16:13:11.229Z,29.80
2019-01-21T16:15:44.384Z,31.85
2019-01-21T16:18:23.896Z,28.32
2019-01-21T16:20:54.323Z,32.80
2019-01-21T16:23:33.357Z,31.73
2019-01-21T16:26:00.377Z,28.65
2019-01-21T16:28:33.401Z,26.62
2019-01-21T16:31:03.812Z,30.68
2019-01-21T16:33:53.627Z,27.00
2019-01-21T16:36:40.629Z,30.75
2019-01-21T16:39:39.785Z,29.20
2019-01-21T16:42:12.275Z,30.55
2019-01-21T16:44:39.203Z,31.48
2019-01-21T16:47:06.087Z,31.17
2019-01-21T16:49:32.925Z,29.85
2019-01-21T16:51:59.717Z,28.12
2019-01-21T16:54:26.537Z,29.35
2019-01-21T16:56:53.321Z,29.75
2019-01-21T16:59:20.132Z,31.82
2019-01-21T17:01:46.964Z,29.20
2019-01-21T17:04:13.742Z,30.27
2019-01-21T17:06:40.572Z,32.53
2019-01-21T17:09:09.014Z,31.68
2019-01-21T17:11:35.866Z,30.08
2019-01-21T17:14:02.647Z,36.88
2019-01-21T17:16:29.483Z,31.45
2019-01-21T17:18:56.284Z,30.90
2019-01-21T17:21:26.989Z,30.40
2019-01-21T17:23:51.673Z,33.75
2019-01-21T17:26:18.500Z,29.75
2019-01-21T17:28:45.289Z,33.90
2019-01-21T17:31:12.118Z,29.77
2019-01-21T17:33:38.889Z,31.33
2019-01-21T17:36:05.704Z,27.22
2019-01-21T17:38:32.487Z,31.50
2019-01-21T17:40:59.410Z,29.98
2019-01-21T17:43:26.241Z,30.90
2019-01-21T17:45:53.057Z,37.20
2019-01-21T17:48:19.856Z,32.13
2019-01-21T17:50:46.792Z,23.87
2019-01-21T17:53:13.578Z,31.05
2019-01-21T17:55:40.389Z,22.87
2019-01-21T17:58:07.178Z,26.17
2019-01-21T18:00:34.247Z,33.67
2019-01-21T18:03:01.097Z,28.47
2019-01-21T18:05:28.346Z,31.00
2019-01-21T18:07:55.196Z,33.38
2019-01-21T18:10:22.320Z,29.35
2019-01-21T18:12:49.105Z,30.85
2019-01-21T18:15:15.903Z,30.43
2019-01-21T18:17:42.711Z,30.50
2019-01-21T18:20:15.285Z,30.95
2019-01-21T18:22:42.204Z,31.10
2019-01-21T18:25:09.904Z,29.72
2019-01-21T18:27:36.717Z,29.42
2019-01-21T18:30:12.904Z,30.75
2019-01-21T18:32:39.788Z,32.83
2019-01-21T18:35:08.803Z,30.88
2019-01-21T18:37:35.584Z,30.17
2019-01-21T18:40:04.110Z,32.83
2019-01-21T18:42:30.892Z,34.35
2019-01-21T18:44:57.848Z,25.40
2019-01-21T18:47:24.635Z,27.00
2019-01-21T18:49:51.513Z,35.05
2019-01-21T18:52:18.292Z,34.23
2019-01-21T18:54:45.608Z,31.25
2019-01-21T18:57:12.392Z,30.55
2019-01-21T18:59:39.213Z,31.25
2019-01-21T19:02:06.077Z,31.07
2019-01-21T19:04:32.859Z,35.15
2019-01-21T19:06:59.673Z,31.95
2019-01-21T19:09:26.467Z,31.00
2019-01-21T19:11:53.570Z,30.68
2019-01-21T19:14:20.351Z,26.85
2019-01-21T19:16:47.184Z,24.05
2019-01-21T19:19:13.968Z,32.88
2019-01-21T19:21:40.825Z,31.68
2019-01-21T19:24:07.713Z,29.45
2019-01-21T19:26:34.538Z,36.40
2019-01-21T19:29:01.320Z,35.78
2019-01-21T19:31:28.644Z,33.10
2019-01-21T19:33:55.429Z,32.33
2019-01-21T19:36:23.060Z,36.08
2019-01-21T19:38:49.836Z,37.98
2019-01-21T19:41:16.621Z,36.95
2019-01-21T19:43:43.516Z,36.10
2019-01-21T19:46:10.301Z,35.20
2019-01-21T19:48:37.219Z,34.30
2019-01-21T19:51:04.017Z,33.28
2019-01-21T19:53:30.800Z,30.40
2019-01-21T19:55:57.630Z,33.30
2019-01-21T19:58:24.411Z,31.05
2019-01-21T20:00:51.237Z,35.35
2019-01-21T20:03:18.015Z,32.10
2019-01-21T20:05:44.837Z,36.40
2019-01-21T20:08:11.623Z,30.12
2019-01-21T20:10:38.437Z,33.63
2019-01-21T20:13:05.221Z,29.23
2019-01-21T20:15:32.036Z,32.00
2019-01-21T20:17:58.816Z,35.85
2019-01-21T20:20:37.632Z,28.90
2019-01-21T20:23:04.524Z,33.02
2019-01-21T20:25:31.358Z,30.72
2019-01-21T20:27:58.134Z,35.50
2019-01-21T20:30:24.948Z,35.88
2019-01-21T20:32:51.987Z,39.98
2019-01-21T20:35:19.196Z,54.85
2019-01-21T20:37:47.788Z,74.12
2019-01-21T20:40:20.169Z,68.78
2019-01-21T20:42:46.953Z,78.45
2019-01-21T20:45:15.525Z,69.17
2019-01-21T20:47:42.740Z,62.83
2019-01-21T20:50:19.239Z,51.30
2019-01-21T20:52:46.012Z,44.40
2019-01-21T20:55:12.964Z,43.87
2019-01-21T20:57:39.712Z,37.98
2019-01-21T21:00:10.133Z,47.83
2019-01-21T21:02:36.937Z,48.60
2019-01-21T21:05:04.954Z,46.08
2019-01-21T21:07:31.728Z,40.85
2019-01-21T21:09:58.553Z,46.68
2019-01-21T21:12:26.251Z,35.38
2019-01-21T21:14:53.069Z,32.75
2019-01-21T21:17:19.853Z,34.48
2019-01-21T21:19:46.636Z,37.42
2019-01-21T21:22:13.456Z,37.05
2019-01-21T21:24:40.346Z,35.30
2019-01-21T21:27:07.196Z,37.67
2019-01-21T21:29:33.937Z,33.30
2019-01-21T21:32:00.750Z,35.43
2019-01-21T21:34:27.532Z,38.05
2019-01-21T21:36:54.349Z,33.55
2019-01-21T21:39:21.137Z,30.65
2019-01-21T21:41:47.952Z,33.33
2019-01-21T21:44:14.728Z,36.03
2019-01-21T21:46:41.885Z,39.08
2019-01-21T21:49:08.677Z,36.38
2019-01-21T21:51:35.492Z,36.10
2019-01-21T21:54:02.277Z,36.30
2019-01-21T21:56:29.081Z,41.08
2019-01-21T21:58:55.861Z,41.77
2019-01-21T22:01:24.043Z,37.25
2019-01-21T22:03:50.959Z,39.90
2019-01-21T22:06:17.776Z,35.35
2019-01-21T22:08:44.551Z,41.05
2019-01-21T22:11:11.374Z,35.20
2019-01-21T22:13:38.140Z,37.88
2019-01-21T22:16:04.961Z,34.18
2019-01-21T22:18:31.736Z,34.95
2019-01-21T22:20:58.561Z,38.13
2019-01-21T22:23:25.336Z,43.25
2019-01-21T22:25:52.243Z,36.63
2019-01-21T22:28:19.224Z,34.90
2019-01-21T22:30:46.124Z,38.42
2019-01-21T22:33:13.467Z,40.20
2019-01-21T22:35:40.368Z,36.20
2019-01-21T22:38:07.262Z,39.40
2019-01-21T22:40:34.179Z,38.17
2019-01-21T22:43:01.030Z,42.85
2019-01-21T22:45:27.954Z,44.13
2019-01-21T22:47:55.336Z,37.60
2019-01-21T22:50:22.326Z,38.70
2019-01-21T22:52:49.191Z,39.30
2019-01-21T22:55:16.473Z,38.65
2019-01-21T22:57:43.500Z,42.15
2019-01-21T23:00:30.465Z,40.38
2019-01-21T23:02:57.288Z,37.60
2019-01-21T23:05:24.067Z,42.20
2019-01-21T23:07:50.882Z,39.63
2019-01-21T23:10:17.673Z,39.83
2019-01-21T23:12:44.501Z,44.33
2019-01-21T23:15:11.484Z,40.43
2019-01-21T23:17:38.304Z,47.62
2019-01-21T23:20:08.390Z,49.42
2019-01-21T23:22:35.204Z,40.63
2019-01-21T23:25:01.990Z,42.88
2019-01-21T23:27:28.810Z,40.10
2019-01-21T23:29:55.885Z,46.33
2019-01-21T23:32:22.701Z,44.75
2019-01-21T23:34:49.507Z,43.55
2019-01-21T23:37:16.288Z,44.33
2019-01-21T23:39:43.109Z,39.38
2019-01-21T23:42:09.988Z,50.73
2019-01-21T23:44:36.811Z,41.18
2019-01-21T23:47:03.661Z,42.25
2019-01-21T23:49:30.473Z,45.45
2019-01-21T23:51:57.556Z,42.85
2019-01-21T23:54:24.330Z,46.68
2019-01-21T23:56:51.147Z,45.80
2019-01-21T23:59:17.971Z,43.20
